createdAt,value
2018-04-10T00:00:10.378Z,11.80
2018-04-10T00:02:39.315Z,11.80
2018-04-10T00:05:07.451Z,11.70
2018-04-10T00:07:36.476Z,11.70
2018-04-10T00:10:05.367Z,11.70
2018-04-10T00:12:33.493Z,11.70
2018-04-10T00:15:01.712Z,11.60
2018-04-10T00:17:29.824Z,11.60
2018-04-10T00:19:58.058Z,11.50
2018-04-10T00:22:26.159Z,11.50
2018-04-10T00:24:54.358Z,11.40
2018-04-10T00:27:23.359Z,11.40
2018-04-10T00:29:52.281Z,11.40
2018-04-10T00:32:20.377Z,11.30
2018-04-10T00:34:48.522Z,11.40
2018-04-10T00:37:16.696Z,11.40
2018-04-10T00:39:44.807Z,11.40
2018-04-10T00:42:12.939Z,11.30
2018-04-10T00:44:41.173Z,11.40
2018-04-10T00:47:10.054Z,11.30
2018-04-10T00:49:38.991Z,11.30
2018-04-10T00:52:07.861Z,11.30
2018-04-10T00:54:36.010Z,11.20
2018-04-10T00:57:04.926Z,11.10
2018-04-10T00:59:33.036Z,11.20
2018-04-10T01:02:01.159Z,11.20
2018-04-10T01:04:29.293Z,11.20
2018-04-10T01:06:57.527Z,11.10
2018-04-10T01:09:25.700Z,11.10
2018-04-10T01:11:54.662Z,11.00
2018-04-10T01:14:23.643Z,11.00
2018-04-10T01:16:52.521Z,11.00
2018-04-10T01:19:20.742Z,11.00
2018-04-10T01:21:49.703Z,10.90
2018-04-10T01:24:18.623Z,11.00
2018-04-10T01:26:47.515Z,11.00
2018-04-10T01:29:15.642Z,10.90
2018-04-10T01:31:44.521Z,11.00
2018-04-10T01:34:12.747Z,11.00
2018-04-10T01:36:41.600Z,11.10
2018-04-10T01:39:10.627Z,11.10
2018-04-10T01:41:39.479Z,11.10
2018-04-10T01:44:08.381Z,11.00
2018-04-10T01:46:37.296Z,11.00
2018-04-10T01:49:05.474Z,11.00
2018-04-10T01:51:33.598Z,11.00
2018-04-10T01:54:02.483Z,11.00
2018-04-10T01:56:31.370Z,11.00
2018-04-10T01:59:00.307Z,10.90
2018-04-10T02:01:29.267Z,10.90
2018-04-10T02:03:58.189Z,10.80
2018-04-10T02:06:26.360Z,10.70
2018-04-10T02:08:54.491Z,10.70
2018-04-10T02:11:23.422Z,10.50
2018-04-10T02:13:56.987Z,10.50
2018-04-10T02:16:30.838Z,10.40
2018-04-10T02:19:05.322Z,10.30
2018-04-10T02:21:39.258Z,10.30
2018-04-10T02:24:12.923Z,10.30
2018-04-10T02:26:46.658Z,10.20
2018-04-10T02:29:20.526Z,10.20
2018-04-10T02:31:54.375Z,10.20
2018-04-10T02:34:28.010Z,10.20
2018-04-10T02:37:02.471Z,10.10
2018-04-10T02:39:30.591Z,10.10
2018-04-10T02:41:58.731Z,10.10
2018-04-10T02:44:26.904Z,10.10
2018-04-10T02:46:55.038Z,10.00
2018-04-10T02:49:23.965Z,10.00
2018-04-10T02:51:52.839Z,9.90
2018-04-10T02:54:21.027Z,10.00
2018-04-10T02:56:49.914Z,9.90
2018-04-10T02:59:18.088Z,9.90
2018-04-10T03:01:47.082Z,10.00
2018-04-10T03:04:15.963Z,10.00
2018-04-10T03:06:44.084Z,10.00
2018-04-10T03:09:12.969Z,10.20
2018-04-10T03:11:41.165Z,10.10
2018-04-10T03:14:10.090Z,10.30
2018-04-10T03:16:38.978Z,10.40
2018-04-10T03:19:07.972Z,10.40
2018-04-10T03:21:36.860Z,10.50
2018-04-10T03:24:05.819Z,10.50
2018-04-10T03:26:34.742Z,10.50
2018-04-10T03:29:02.913Z,10.40
2018-04-10T03:31:31.906Z,10.30
2018-04-10T03:34:00.896Z,10.30
2018-04-10T03:36:29.894Z,10.20
2018-04-10T03:38:57.999Z,10.20
2018-04-10T03:41:26.130Z,10.20
2018-04-10T03:43:54.301Z,10.30
2018-04-10T03:46:23.293Z,10.30
2018-04-10T03:48:52.142Z,10.30
2018-04-10T03:51:21.131Z,10.40
2018-04-10T03:53:50.020Z,10.40
2018-04-10T03:56:18.953Z,10.40
2018-04-10T04:01:21.339Z,10.40
2018-04-10T04:03:50.228Z,10.40
2018-04-10T04:06:18.402Z,10.40
2018-04-10T04:08:46.515Z,10.40
2018-04-10T04:11:14.663Z,10.30
2018-04-10T04:13:42.814Z,10.40
2018-04-10T04:16:23.580Z,10.30
2018-04-10T04:19:04.122Z,10.20
2018-04-10T04:21:44.875Z,10.20
2018-04-10T04:24:13.808Z,10.20
2018-04-10T04:26:42.586Z,10.20
2018-04-10T04:29:11.578Z,10.20
2018-04-10T04:31:41.184Z,10.20
2018-04-10T04:34:10.073Z,10.10
2018-04-10T04:36:39.677Z,10.20
2018-04-10T04:39:08.772Z,10.20
2018-04-10T04:41:37.661Z,10.10
2018-04-10T04:44:05.776Z,10.10
2018-04-10T04:46:34.007Z,10.10
2018-04-10T04:49:03.003Z,10.10
2018-04-10T04:51:31.105Z,10.10
2018-04-10T04:53:59.235Z,10.10
2018-04-10T04:56:27.379Z,10.00
2018-04-10T04:58:56.304Z,10.00
2018-04-10T05:01:25.152Z,10.00
2018-04-10T05:03:54.078Z,10.00
2018-04-10T05:06:22.977Z,10.10
2018-04-10T05:08:51.100Z,10.10
2018-04-10T05:11:20.029Z,10.20
2018-04-10T05:13:48.987Z,10.20
2018-04-10T05:16:17.910Z,10.30
2018-04-10T05:18:46.798Z,10.30
2018-04-10T05:21:14.914Z,10.30
2018-04-10T05:23:43.050Z,10.50
2018-04-10T05:26:11.186Z,10.60
2018-04-10T05:28:40.073Z,10.60
2018-04-10T05:31:08.991Z,10.70
2018-04-10T05:33:37.111Z,10.70
2018-04-10T05:36:05.234Z,10.70
2018-04-10T05:38:33.405Z,10.80
2018-04-10T05:41:02.295Z,11.00
2018-04-10T05:43:31.258Z,11.10
2018-04-10T05:46:00.180Z,11.20
2018-04-10T05:48:28.270Z,11.10
2018-04-10T05:50:56.476Z,11.30
2018-04-10T05:53:25.369Z,11.50
2018-04-10T05:55:54.261Z,11.50
2018-04-10T05:58:23.155Z,11.50
2018-04-10T06:00:52.078Z,11.50
2018-04-10T06:03:20.214Z,11.50
2018-04-10T06:05:49.126Z,11.60
2018-04-10T06:08:17.239Z,11.50
2018-04-10T06:10:45.451Z,11.70
2018-04-10T06:13:14.443Z,12.00
2018-04-10T06:15:42.645Z,12.00
2018-04-10T06:18:10.766Z,12.20
2018-04-10T06:20:39.050Z,12.30
2018-04-10T06:23:08.087Z,12.60
2018-04-10T06:25:36.259Z,12.60
2018-04-10T06:28:04.378Z,12.80
2018-04-10T06:30:33.284Z,13.00
2018-04-10T06:33:01.489Z,13.00
2018-04-10T06:35:29.665Z,13.10
2018-04-10T06:37:57.790Z,13.20
2018-04-10T06:40:26.724Z,13.20
2018-04-10T06:42:54.834Z,13.20
2018-04-10T06:45:23.011Z,13.30
2018-04-10T06:47:51.242Z,13.40
2018-04-10T06:50:19.379Z,13.40
2018-04-10T06:52:48.280Z,13.60
2018-04-10T06:55:16.411Z,13.60
2018-04-10T06:57:44.647Z,13.60
2018-04-10T07:00:12.789Z,13.80
2018-04-10T07:02:41.675Z,13.90
2018-04-10T07:05:10.606Z,14.00
2018-04-10T07:07:38.948Z,14.00
2018-04-10T07:10:07.088Z,14.10
2018-04-10T07:12:35.219Z,14.20
2018-04-10T07:15:03.374Z,14.20
2018-04-10T07:17:31.565Z,14.30
2018-04-10T07:19:59.694Z,14.20
2018-04-10T07:22:28.585Z,14.30
2018-04-10T07:24:57.512Z,14.40
2018-04-10T07:27:25.776Z,14.40
2018-04-10T07:29:53.903Z,14.40
2018-04-10T07:32:22.131Z,14.50
2018-04-10T07:34:50.304Z,14.60
2018-04-10T07:37:19.203Z,14.70
2018-04-10T07:39:47.370Z,14.70
2018-04-10T07:42:15.534Z,14.70
2018-04-10T07:44:43.811Z,14.80
2018-04-10T07:47:11.927Z,14.90
2018-04-10T07:49:40.161Z,15.00
2018-04-10T07:52:08.331Z,15.10
2018-04-10T07:54:36.466Z,15.10
2018-04-10T07:57:05.387Z,15.20
2018-04-10T07:59:33.560Z,15.10
2018-04-10T08:02:01.704Z,15.10
2018-04-10T08:04:29.896Z,15.10
2018-04-10T08:06:58.077Z,15.10
2018-04-10T08:09:26.252Z,15.20
2018-04-10T08:11:54.425Z,15.20
2018-04-10T08:14:24.341Z,15.20
2018-04-10T08:16:52.452Z,15.10
2018-04-10T08:19:22.179Z,15.20
2018-04-10T08:21:51.116Z,15.20
2018-04-10T08:24:19.243Z,15.20
2018-04-10T08:26:48.278Z,15.20
2018-04-10T08:29:16.406Z,15.20
2018-04-10T08:31:45.481Z,15.30
2018-04-10T08:34:13.622Z,15.30
2018-04-10T08:36:41.779Z,15.40
2018-04-10T08:39:09.884Z,15.50
2018-04-10T08:41:38.028Z,15.40
2018-04-10T08:44:06.190Z,15.50
2018-04-10T08:46:35.078Z,15.80
2018-04-10T08:49:03.456Z,15.70
2018-04-10T08:51:31.630Z,15.90
2018-04-10T08:53:59.748Z,15.90
2018-04-10T08:56:27.899Z,16.00
2018-04-10T08:58:56.147Z,16.10
2018-04-10T09:01:24.305Z,16.10
2018-04-10T09:03:52.464Z,16.20
2018-04-10T09:06:21.387Z,16.30
2018-04-10T09:08:49.530Z,16.20
2018-04-10T09:11:18.399Z,16.30
2018-04-10T09:13:47.330Z,16.40
2018-04-10T09:16:15.524Z,16.40
2018-04-10T09:18:43.673Z,16.40
2018-04-10T09:21:11.807Z,16.40
2018-04-10T09:23:40.767Z,16.40
2018-04-10T09:26:08.914Z,16.40
2018-04-10T09:28:37.027Z,16.40
2018-04-10T09:31:06.039Z,16.50
2018-04-10T09:33:35.066Z,16.60
2018-04-10T09:36:03.175Z,16.60
2018-04-10T09:38:31.416Z,16.70
2018-04-10T09:40:59.529Z,16.60
2018-04-10T09:43:28.428Z,16.50
2018-04-10T09:45:57.463Z,16.40
2018-04-10T09:48:25.635Z,16.40
2018-04-10T09:50:53.740Z,16.20
2018-04-10T09:53:21.979Z,16.20
2018-04-10T09:55:50.152Z,16.30
2018-04-10T09:58:18.325Z,16.40
2018-04-10T10:00:46.441Z,16.60
2018-04-10T10:03:14.572Z,16.80
2018-04-10T10:05:42.726Z,16.90
2018-04-10T10:08:10.910Z,17.10
2018-04-10T10:10:39.186Z,17.30
2018-04-10T10:13:07.357Z,17.30
2018-04-10T10:15:35.530Z,17.50
2018-04-10T10:18:03.712Z,17.50
2018-04-10T10:20:31.860Z,17.50
2018-04-10T10:22:59.992Z,17.50
2018-04-10T10:25:28.126Z,17.40
2018-04-10T10:27:56.291Z,17.50
2018-04-10T10:30:24.461Z,17.60
2018-04-10T10:32:52.644Z,17.60
2018-04-10T10:35:20.908Z,17.70
2018-04-10T10:37:49.081Z,17.80
2018-04-10T10:40:17.206Z,18.00
2018-04-10T10:42:46.964Z,18.40
2018-04-10T10:45:15.077Z,18.30
2018-04-10T10:47:43.209Z,18.70
2018-04-10T10:50:11.479Z,19.00
2018-04-10T10:52:39.594Z,19.30
2018-04-10T10:55:09.359Z,19.50
2018-04-10T10:57:38.354Z,19.50
2018-04-10T11:00:07.291Z,19.50
2018-04-10T11:02:35.416Z,19.80
2018-04-10T11:05:03.596Z,19.60
2018-04-10T11:07:31.712Z,19.70
2018-04-10T11:10:01.350Z,19.30
2018-04-10T11:12:29.535Z,19.30
2018-04-10T11:14:58.427Z,19.30
2018-04-10T11:17:26.559Z,19.20
2018-04-10T11:19:55.495Z,19.70
2018-04-10T11:22:23.595Z,19.70
2018-04-10T11:24:51.831Z,20.00
2018-04-10T11:27:20.697Z,20.50
2018-04-10T11:29:48.894Z,20.50
2018-04-10T11:32:17.885Z,20.50
2018-04-10T11:34:46.791Z,20.30
2018-04-10T11:37:15.005Z,20.30
2018-04-10T11:39:43.228Z,20.50
2018-04-10T11:42:11.502Z,20.60
2018-04-10T11:44:39.639Z,20.90
2018-04-10T11:47:08.548Z,21.00
2018-04-10T11:49:36.698Z,21.00
2018-04-10T11:52:04.839Z,21.20
2018-04-10T11:54:32.989Z,21.30
2018-04-10T11:57:01.207Z,21.50
2018-04-10T11:59:30.143Z,21.70
2018-04-10T12:01:58.341Z,21.70
2018-04-10T12:04:26.586Z,21.80
2018-04-10T12:06:55.579Z,22.00
2018-04-10T12:09:23.754Z,21.90
2018-04-10T12:11:51.939Z,22.00
2018-04-10T12:14:20.202Z,21.80
2018-04-10T12:16:48.372Z,21.80
2018-04-10T12:19:16.491Z,21.50
2018-04-10T12:21:44.643Z,21.40
2018-04-10T12:24:12.758Z,21.40
2018-04-10T12:26:41.742Z,21.50
2018-04-10T12:29:10.664Z,21.80
2018-04-10T12:31:38.840Z,21.70
2018-04-10T12:34:07.008Z,21.70
2018-04-10T12:36:35.191Z,21.90
2018-04-10T12:39:03.355Z,22.00
2018-04-10T12:41:31.458Z,22.30
2018-04-10T12:43:59.709Z,22.60
2018-04-10T12:46:27.871Z,22.90
2018-04-10T12:48:56.875Z,23.10
2018-04-10T12:51:25.037Z,23.10
2018-04-10T12:53:53.159Z,23.10
2018-04-10T12:56:21.356Z,23.30
2018-04-10T12:58:50.285Z,23.40
2018-04-10T13:01:18.444Z,23.40
2018-04-10T13:03:46.615Z,23.40
2018-04-10T13:06:15.606Z,23.40
2018-04-10T13:08:43.779Z,23.40
2018-04-10T13:11:12.674Z,23.50
2018-04-10T13:13:40.818Z,23.50
2018-04-10T13:16:09.811Z,23.50
2018-04-10T13:18:37.980Z,23.50
2018-04-10T13:21:06.884Z,23.50
2018-04-10T13:23:35.045Z,23.40
2018-04-10T13:26:03.957Z,23.60
2018-04-10T13:28:32.063Z,23.60
2018-04-10T13:31:00.300Z,23.60
2018-04-10T13:33:29.195Z,23.70
2018-04-10T13:35:57.309Z,23.70
2018-04-10T13:38:25.535Z,23.60
2018-04-10T13:40:53.639Z,23.60
2018-04-10T13:43:21.882Z,23.60
2018-04-10T13:45:50.067Z,23.30
2018-04-10T13:48:18.230Z,23.30
2018-04-10T13:50:46.359Z,23.30
2018-04-10T13:53:15.393Z,23.40
2018-04-10T13:55:43.518Z,23.40
2018-04-10T13:58:11.676Z,23.50
2018-04-10T14:00:39.838Z,24.10
2018-04-10T14:03:08.080Z,24.60
2018-04-10T14:05:37.070Z,25.10
2018-04-10T14:08:05.243Z,25.10
2018-04-10T14:10:33.382Z,25.30
2018-04-10T14:13:02.383Z,25.20
2018-04-10T14:15:30.579Z,25.20
2018-04-10T14:17:58.711Z,25.60
2018-04-10T14:20:26.849Z,25.50
2018-04-10T14:22:55.096Z,25.50
2018-04-10T14:25:23.269Z,25.40
2018-04-10T14:27:51.451Z,25.20
2018-04-10T14:30:19.547Z,25.30
2018-04-10T14:32:47.790Z,25.70
2018-04-10T14:35:15.960Z,26.30
2018-04-10T14:37:44.847Z,28.00
2018-04-10T14:40:13.020Z,27.90
2018-04-10T14:42:41.165Z,28.50
2018-04-10T14:45:10.082Z,29.20
2018-04-10T14:47:38.251Z,29.10
2018-04-10T14:50:06.443Z,29.00
2018-04-10T14:52:34.599Z,29.00
2018-04-10T14:55:02.711Z,28.80
2018-04-10T14:57:30.849Z,28.30
2018-04-10T14:59:59.015Z,27.60
2018-04-10T15:02:27.187Z,27.30
2018-04-10T15:04:56.064Z,26.50
2018-04-10T15:07:24.286Z,26.40
2018-04-10T15:09:52.625Z,26.10
2018-04-10T15:12:21.637Z,25.60
2018-04-10T15:14:49.799Z,25.60
2018-04-10T15:17:17.960Z,25.60
2018-04-10T15:19:46.877Z,26.60
2018-04-10T15:22:14.999Z,26.70
2018-04-10T15:24:43.913Z,27.70
2018-04-10T15:27:12.083Z,27.70
2018-04-10T15:29:40.989Z,28.30
2018-04-10T15:32:09.115Z,28.30
2018-04-10T15:34:38.125Z,28.60
2018-04-10T15:37:06.239Z,28.60
2018-04-10T15:39:34.484Z,28.50
2018-04-10T15:42:02.655Z,28.00
2018-04-10T15:44:31.648Z,27.10
2018-04-10T15:47:00.578Z,26.90
2018-04-10T15:49:28.713Z,26.80
2018-04-10T15:51:56.882Z,26.50
2018-04-10T15:54:25.051Z,26.10
2018-04-10T15:56:53.223Z,25.50
2018-04-10T15:59:21.303Z,24.80
2018-04-10T16:01:49.465Z,24.30
2018-04-10T16:04:17.592Z,24.00
2018-04-10T16:06:45.812Z,23.70
2018-04-10T16:09:15.009Z,23.30
2018-04-10T16:11:43.888Z,23.20
2018-04-10T16:14:12.813Z,22.80
2018-04-10T16:16:40.977Z,22.80
2018-04-10T16:19:09.092Z,22.50
2018-04-10T16:21:37.282Z,22.30
2018-04-10T16:24:06.268Z,21.60
2018-04-10T16:26:35.288Z,21.30
2018-04-10T16:29:04.159Z,21.10
2018-04-10T16:31:32.276Z,21.00
2018-04-10T16:34:00.520Z,20.80
2018-04-10T16:36:29.516Z,20.40
2018-04-10T16:38:57.684Z,20.40
2018-04-10T16:41:26.535Z,20.00
2018-04-10T16:43:55.470Z,19.80
2018-04-10T16:46:23.639Z,19.80
2018-04-10T16:48:52.534Z,19.60
2018-04-10T16:51:20.673Z,19.60
2018-04-10T16:53:49.589Z,19.40
2018-04-10T16:56:18.579Z,19.30
2018-04-10T16:58:47.444Z,19.20
2018-04-10T17:01:16.372Z,19.10
2018-04-10T17:03:44.507Z,19.10
2018-04-10T17:06:13.440Z,18.90
2018-04-10T17:08:41.640Z,18.90
2018-04-10T17:11:09.843Z,18.80
2018-04-10T17:13:37.985Z,18.70
2018-04-10T17:16:06.210Z,18.70
2018-04-10T17:18:34.337Z,18.60
2018-04-10T17:21:02.560Z,18.50
2018-04-10T17:23:30.729Z,18.30
2018-04-10T17:25:58.900Z,18.30
2018-04-10T17:28:27.893Z,18.10
2018-04-10T17:30:56.061Z,18.10
2018-04-10T17:33:24.942Z,18.00
2018-04-10T17:35:53.116Z,18.00
2018-04-10T17:38:21.262Z,17.90
2018-04-10T17:40:49.454Z,17.90
2018-04-10T17:43:17.600Z,17.80
2018-04-10T17:45:45.790Z,17.80
2018-04-10T17:48:13.928Z,17.70
2018-04-10T17:50:42.205Z,17.70
2018-04-10T17:53:10.290Z,17.60
2018-04-10T17:55:38.429Z,17.60
2018-04-10T17:58:06.579Z,17.60
2018-04-10T18:00:34.751Z,17.50
2018-04-10T18:03:02.889Z,17.50
2018-04-10T18:05:31.913Z,17.40
2018-04-10T18:08:00.192Z,17.30
2018-04-10T18:10:28.357Z,17.30
2018-04-10T18:12:57.238Z,17.20
2018-04-10T18:15:25.385Z,17.20
2018-04-10T18:17:54.314Z,17.10
2018-04-10T18:20:22.606Z,17.10
2018-04-10T18:22:50.741Z,17.00
2018-04-10T18:25:18.972Z,17.00
2018-04-10T18:27:47.136Z,17.00
2018-04-10T18:30:15.353Z,17.00
2018-04-10T18:32:44.369Z,16.90
2018-04-10T18:35:12.532Z,16.90
2018-04-10T18:37:40.712Z,16.90
2018-04-10T18:40:08.960Z,16.90
2018-04-10T18:42:37.908Z,16.80
2018-04-10T18:45:06.221Z,16.80
2018-04-10T18:47:34.406Z,16.60
2018-04-10T18:50:03.337Z,16.40
2018-04-10T18:52:31.551Z,16.40
2018-04-10T18:55:01.244Z,16.10
2018-04-10T18:57:29.440Z,16.10
2018-04-10T18:59:57.614Z,16.00
2018-04-10T19:02:26.554Z,15.50
2018-04-10T19:04:54.815Z,15.50
2018-04-10T19:07:22.972Z,15.20
2018-04-10T19:09:51.199Z,14.90
2018-04-10T19:12:19.442Z,14.70
2018-04-10T19:14:47.575Z,14.50
2018-04-10T19:17:16.527Z,14.30
2018-04-10T19:19:44.744Z,14.30
2018-04-10T19:22:13.757Z,14.20
2018-04-10T19:24:41.957Z,14.10
2018-04-10T19:27:10.290Z,14.10
2018-04-10T19:29:39.239Z,14.00
2018-04-10T19:32:07.442Z,14.00
2018-04-10T19:34:36.438Z,13.90
2018-04-10T19:37:05.458Z,13.90
2018-04-10T19:39:33.749Z,13.80
2018-04-10T19:42:01.897Z,13.80
2018-04-10T19:44:30.098Z,13.70
2018-04-10T19:46:58.255Z,13.70
2018-04-10T19:49:26.534Z,13.60
2018-04-10T19:51:54.737Z,13.50
2018-04-10T19:54:22.890Z,13.50
2018-04-10T19:56:51.096Z,13.50
2018-04-10T19:59:19.311Z,13.50
2018-04-10T20:01:47.552Z,13.50
2018-04-10T20:04:15.697Z,13.40
2018-04-10T20:06:43.922Z,13.40
2018-04-10T20:09:12.111Z,13.20
2018-04-10T20:11:40.272Z,13.10
2018-04-10T20:14:08.473Z,13.00
2018-04-10T20:16:36.691Z,12.90
2018-04-10T20:19:04.904Z,12.80
2018-04-10T20:21:33.044Z,12.70
2018-04-10T20:24:01.258Z,12.60
2018-04-10T20:26:29.521Z,12.60
2018-04-10T20:28:57.707Z,12.60
2018-04-10T20:31:25.870Z,12.50
2018-04-10T20:33:54.053Z,12.40
2018-04-10T20:36:22.287Z,12.40
2018-04-10T20:38:51.281Z,12.30
2018-04-10T20:41:20.215Z,12.40
2018-04-10T20:43:48.415Z,12.40
2018-04-10T20:46:16.641Z,12.40
2018-04-10T20:48:44.850Z,12.40
2018-04-10T20:51:12.990Z,12.50
2018-04-10T20:53:41.165Z,12.50
2018-04-10T20:56:09.336Z,12.50
2018-04-10T20:58:37.599Z,12.60
2018-04-10T21:01:05.722Z,12.60
2018-04-10T21:03:33.899Z,12.50
2018-04-10T21:06:02.059Z,12.50
2018-04-10T21:08:31.718Z,12.50
2018-04-10T21:10:59.894Z,12.60
2018-04-10T21:13:28.055Z,12.50
2018-04-10T21:15:56.221Z,12.50
2018-04-10T21:18:24.413Z,12.40
2018-04-10T21:20:52.561Z,12.40
2018-04-10T21:23:21.501Z,12.20
2018-04-10T21:25:49.624Z,12.20
2018-04-10T21:28:17.820Z,12.10
2018-04-10T21:30:45.991Z,12.10
2018-04-10T21:33:14.135Z,12.10
2018-04-10T21:35:42.347Z,12.20
2018-04-10T21:38:10.612Z,12.30
2018-04-10T21:40:38.735Z,12.40
2018-04-10T21:43:12.592Z,12.40
2018-04-10T21:45:40.721Z,12.40
2018-04-10T21:48:09.624Z,12.40
2018-04-10T21:50:38.576Z,12.40
2018-04-10T21:53:07.596Z,12.40
2018-04-10T21:55:36.489Z,12.40
2018-04-10T21:58:04.685Z,12.40
2018-04-10T22:00:33.556Z,12.30
2018-04-10T22:03:01.764Z,12.30
2018-04-10T22:05:29.929Z,12.30
2018-04-10T22:07:58.791Z,12.30
2018-04-10T22:10:26.987Z,12.30
2018-04-10T22:12:55.115Z,12.20
2018-04-10T22:15:24.052Z,12.30
2018-04-10T22:17:52.207Z,12.20
2018-04-10T22:20:20.294Z,12.30
2018-04-10T22:22:48.438Z,12.30
2018-04-10T22:25:16.638Z,12.30
2018-04-10T22:27:44.786Z,12.30
2018-04-10T22:30:12.904Z,12.30
2018-04-10T22:32:41.144Z,12.30
2018-04-10T22:35:09.296Z,12.30
2018-04-10T22:37:38.173Z,12.30
2018-04-10T22:40:06.292Z,12.20
2018-04-10T22:42:34.530Z,12.30
2018-04-10T22:45:02.671Z,12.40
2018-04-10T22:47:30.791Z,12.30
2018-04-10T22:49:58.943Z,12.40
2018-04-10T22:52:27.119Z,12.40
2018-04-10T22:54:55.228Z,12.50
2018-04-10T22:57:23.375Z,12.30
2018-04-10T22:59:51.511Z,12.30
2018-04-10T23:02:19.791Z,12.20
2018-04-10T23:04:48.040Z,12.10
2018-04-10T23:07:16.964Z,12.10
2018-04-10T23:09:45.113Z,12.00
2018-04-10T23:12:14.152Z,12.00
2018-04-10T23:14:42.437Z,11.90
2018-04-10T23:17:10.589Z,11.90
2018-04-10T23:19:38.847Z,11.90
2018-04-10T23:22:07.775Z,11.90
2018-04-10T23:24:35.900Z,11.80
2018-04-10T23:27:04.123Z,11.90
2018-04-10T23:29:32.247Z,11.90
2018-04-10T23:32:00.379Z,11.80
2018-04-10T23:34:28.646Z,11.80
2018-04-10T23:36:56.826Z,11.80
2018-04-10T23:39:25.094Z,11.60
2018-04-10T23:41:53.269Z,11.60
2018-04-10T23:44:21.388Z,11.50
2018-04-10T23:46:49.612Z,11.50
2018-04-10T23:49:17.752Z,11.50
2018-04-10T23:51:46.673Z,11.40
2018-04-10T23:54:14.806Z,11.40
2018-04-10T23:56:43.731Z,11.20
2018-04-10T23:59:11.904Z,11.20
